Hauptseite
METAR-TAF:

METAR-TAF

Flughäfen :

Flughafen Burgos

Burgos, Spanien

Breite: 42-22N, Länge: 003-38W, Höhe: 894 m

Beobachtung

Neuester Wetterbericht von vor 18 Minuten, um 12:30 UTC
Wind 13 kt aus West/Südwest, variierte zwischen Süd/Südwest und West/Nordwest
Temperatur 10°C
Luftfeuchtigkeit 57%
Luftdruck 1024 hPa
Sichtweite 10 km oder mehr
Leicht bewölkt in der Höhe von 4000 ft
Aufgelockert bewölkt in der Höhe von 6000 ft

METAR: LEBG 261230Z 25013KT 210V290 9999 FEW040 SCT060 10/02 Q1024

Zeit: 14:48 (12:48 UTC)

Prognose

Neuester Wetterbericht von vor 1 Stunde und 48 Minuten, um 11:00 UTC
Gültige Prognose vom 26 um 12 UTC bis 26 um 21 UTC
Wind 12 kt aus West/Südwest
Sichtweite 10 km oder mehr
Aufgelockert bewölkt in der Höhe von 3000 ft
Übergehend zu
vom 26 um 18 UTC bis 26 um 20 UTC
Wind 5 kt aus unterschiedlichen Richtungen

TAF: LEBG 261100Z 2612/2621 25012KT 9999 SCT030 BECMG 2618/2620 VRB05KT

Wetterbeobachtungen und Prognosen von mehr als 4000 Flughäfen (METAR und TAF Bericht).

Die verfügbaren Stationen werden durch gelbe und rote Markierungen auf der Karte dargestellt.

Führen Sie die Maus auf sie, um den Namen der Station zu sehen.

Darauf klicken, um die Beobachtung von Wetterbeobachtungen und Prognosen zu sehen.

Um die Karte zu ändern : klicken Sie auf den grünen Tasten mit einem schwarzen Kreuz Zum Vergrößern, auf den grünen Button mit einem Gedankenstrich zu verkleinern, oder auf die grünen Pfeile für benachbarte Karten.


METAR-TAF: